Aérodrome :
LOGIN :

S'inscrire | Disclaimer

   EN    FR    IT 

 










Légende :    VFR   VFR Marginal   IFR   IFR Intensif   IFR Très Intensif
Visi : 
Plafond : 
>= 8 km
>= 3000ft
5 à 8 km
1000 à 3000 ft
1500m à 5 km
500 à 1000 ft
800 à 1500m
200 à 500 ft
< 800m
< 200 ft
Symboles :   Orages  Brouillard  Fortes neiges  Fortes précipitations  Vent > 20 kt
SIGMETs :   Divers  Orages  Givrage  Turbulence  Onde Orograph.  Cendres Volcan.






- Altitude de l'aérodrome : 499 ft
- Code IATA : TLS


LFBO - Toulouse / Blagnac

DERNIER METAR :
  • 021930Z AUTO 24005KT CAVOK 12/06 Q1015 NOSIG

METARs EXPIRÉS :
  • 021900Z AUTO 23005KT CAVOK 12/06 Q1014 NOSIG
  • 021830Z AUTO 23007KT CAVOK 13/06 Q1014 NOSIG
  • 021800Z AUTO 26006KT 230V290 CAVOK 14/05 Q1014 NOSIG
  • 021730Z AUTO 23005KT CAVOK 14/06 Q1014 NOSIG
  • 021700Z AUTO 23004KT CAVOK 14/05 Q1014 NOSIG

TAF TAF LFBO
Valide du 02 à 18h jusqu'au 04 à 00h UTC


021700Z 0218/0324 29008KT CAVOK
TEMPO 0222/0302 27015G25KT SCT025
PROB30
TEMPO 0302/0307 BKN010
BECMG 0307/0309 SCT030
BECMG 0310/0312 CAVOK
BECMG 0316/0318 VRB03KT
ATIS : +33 5 62 74 66 36



MET'MAP, la Météo Aéronautique d'un coup d'oeil ! - Copyright ORBIFLY Décembre 2007 - Disclaimer

ORBIFLY MET'MAP TEAM :

Programmation & Développement : Alexandra Zaïnal
Sur une idée originale de : Baudouin d'Aumeries
Assistance à la programmation : Marc-Olivier Méhu
Soutien technique & logistique : Manuel Goepfert

Contact : metmap@orbifly.com




SOURCES & CREDITS :

   NOAA